sensor_id;sensor_type;location;lat;lon;timestamp;temperature;humidity
5130;DHT22;2583;50.946;6.954;2022-07-06T00:01:53;16.00;92.10
5130;DHT22;2583;50.946;6.954;2022-07-06T00:04:20;15.90;91.80
5130;DHT22;2583;50.946;6.954;2022-07-06T00:06:47;15.80;92.20
5130;DHT22;2583;50.946;6.954;2022-07-06T00:09:14;15.80;93.00
5130;DHT22;2583;50.946;6.954;2022-07-06T00:11:41;15.70;93.40
5130;DHT22;2583;50.946;6.954;2022-07-06T00:14:08;15.70;94.10
5130;DHT22;2583;50.946;6.954;2022-07-06T00:16:35;15.60;95.00
5130;DHT22;2583;50.946;6.954;2022-07-06T00:19:02;15.60;95.50
5130;DHT22;2583;50.946;6.954;2022-07-06T00:21:29;15.60;95.80
5130;DHT22;2583;50.946;6.954;2022-07-06T00:23:56;15.60;96.80
5130;DHT22;2583;50.946;6.954;2022-07-06T00:26:23;15.50;97.40
5130;DHT22;2583;50.946;6.954;2022-07-06T00:28:49;15.50;98.00
5130;DHT22;2583;50.946;6.954;2022-07-06T00:31:16;15.50;97.40
5130;DHT22;2583;50.946;6.954;2022-07-06T00:33:43;15.40;98.50
5130;DHT22;2583;50.946;6.954;2022-07-06T00:36:10;15.40;98.30
5130;DHT22;2583;50.946;6.954;2022-07-06T00:38:37;15.40;97.50
5130;DHT22;2583;50.946;6.954;2022-07-06T00:41:04;15.30;98.40
5130;DHT22;2583;50.946;6.954;2022-07-06T00:43:50;15.30;98.50
5130;DHT22;2583;50.946;6.954;2022-07-06T00:46:17;15.20;99.10
5130;DHT22;2583;50.946;6.954;2022-07-06T00:48:44;15.20;99.30
5130;DHT22;2583;50.946;6.954;2022-07-06T00:51:12;15.20;99.20
5130;DHT22;2583;50.946;6.954;2022-07-06T00:53:40;15.20;99.60
5130;DHT22;2583;50.946;6.954;2022-07-06T00:56:07;15.10;99.20
5130;DHT22;2583;50.946;6.954;2022-07-06T00:58:35;15.10;99.50
5130;DHT22;2583;50.946;6.954;2022-07-06T01:01:02;15.00;99.80
5130;DHT22;2583;50.946;6.954;2022-07-06T01:03:29;15.00;99.80
5130;DHT22;2583;50.946;6.954;2022-07-06T01:05:56;15.00;99.90
5130;DHT22;2583;50.946;6.954;2022-07-06T01:08:23;15.00;99.90
5130;DHT22;2583;50.946;6.954;2022-07-06T01:10:51;15.00;99.90
5130;DHT22;2583;50.946;6.954;2022-07-06T01:13:18;15.00;99.90
5130;DHT22;2583;50.946;6.954;2022-07-06T01:15:45;15.00;99.90
5130;DHT22;2583;50.946;6.954;2022-07-06T01:18:12;14.90;99.90
5130;DHT22;2583;50.946;6.954;2022-07-06T01:20:39;14.90;99.90
5130;DHT22;2583;50.946;6.954;2022-07-06T01:23:06;14.80;99.90
5130;DHT22;2583;50.946;6.954;2022-07-06T01:25:33;14.80;99.90
5130;DHT22;2583;50.946;6.954;2022-07-06T01:28:00;14.70;99.90
5130;DHT22;2583;50.946;6.954;2022-07-06T01:30:27;14.70;99.90
5130;DHT22;2583;50.946;6.954;2022-07-06T01:32:54;14.60;99.90
5130;DHT22;2583;50.946;6.954;2022-07-06T01:35:21;14.60;99.90
5130;DHT22;2583;50.946;6.954;2022-07-06T01:37:49;14.50;99.90
5130;DHT22;2583;50.946;6.954;2022-07-06T01:40:16;14.50;99.90
5130;DHT22;2583;50.946;6.954;2022-07-06T01:42:43;14.50;99.90
5130;DHT22;2583;50.946;6.954;2022-07-06T01:45:10;14.40;99.90
5130;DHT22;2583;50.946;6.954;2022-07-06T01:47:37;14.50;99.90
5130;DHT22;2583;50.946;6.954;2022-07-06T01:50:07;14.50;99.90
5130;DHT22;2583;50.946;6.954;2022-07-06T01:52:34;14.50;99.90
5130;DHT22;2583;50.946;6.954;2022-07-06T01:55:01;14.40;99.90
5130;DHT22;2583;50.946;6.954;2022-07-06T01:57:28;14.40;99.90
5130;DHT22;2583;50.946;6.954;2022-07-06T01:59:55;14.40;99.90
5130;DHT22;2583;50.946;6.954;2022-07-06T02:02:22;14.30;99.90
5130;DHT22;2583;50.946;6.954;2022-07-06T02:04:48;14.30;99.90
5130;DHT22;2583;50.946;6.954;2022-07-06T02:07:15;14.20;99.90
5130;DHT22;2583;50.946;6.954;2022-07-06T02:09:42;14.20;99.90
5130;DHT22;2583;50.946;6.954;2022-07-06T02:12:09;14.20;99.90
5130;DHT22;2583;50.946;6.954;2022-07-06T02:14:36;14.10;99.90
5130;DHT22;2583;50.946;6.954;2022-07-06T02:17:03;14.20;99.90
5130;DHT22;2583;50.946;6.954;2022-07-06T02:19:30;14.10;99.90
5130;DHT22;2583;50.946;6.954;2022-07-06T02:21:56;14.10;99.90
5130;DHT22;2583;50.946;6.954;2022-07-06T02:24:23;14.10;99.90
5130;DHT22;2583;50.946;6.954;2022-07-06T02:26:50;14.10;99.90
5130;DHT22;2583;50.946;6.954;2022-07-06T02:29:17;14.00;99.90
5130;DHT22;2583;50.946;6.954;2022-07-06T02:31:44;14.00;99.90
5130;DHT22;2583;50.946;6.954;2022-07-06T02:34:11;14.00;99.90
5130;DHT22;2583;50.946;6.954;2022-07-06T02:36:38;14.00;99.90
5130;DHT22;2583;50.946;6.954;2022-07-06T02:39:05;14.00;99.90
5130;DHT22;2583;50.946;6.954;2022-07-06T02:41:31;14.00;99.90
5130;DHT22;2583;50.946;6.954;2022-07-06T02:43:58;13.90;99.90
5130;DHT22;2583;50.946;6.954;2022-07-06T02:46:25;13.90;99.90
5130;DHT22;2583;50.946;6.954;2022-07-06T02:48:52;13.90;99.90
5130;DHT22;2583;50.946;6.954;2022-07-06T02:51:19;13.90;99.90
5130;DHT22;2583;50.946;6.954;2022-07-06T02:53:46;13.80;99.90
5130;DHT22;2583;50.946;6.954;2022-07-06T02:56:12;13.80;99.90
5130;DHT22;2583;50.946;6.954;2022-07-06T02:58:39;13.80;99.90
5130;DHT22;2583;50.946;6.954;2022-07-06T03:01:06;13.70;99.90
5130;DHT22;2583;50.946;6.954;2022-07-06T03:03:33;13.70;99.90
5130;DHT22;2583;50.946;6.954;2022-07-06T03:06:00;13.60;99.90
5130;DHT22;2583;50.946;6.954;2022-07-06T03:08:26;13.60;99.90
5130;DHT22;2583;50.946;6.954;2022-07-06T03:10:53;13.50;99.90
5130;DHT22;2583;50.946;6.954;2022-07-06T03:13:20;13.60;99.90
5130;DHT22;2583;50.946;6.954;2022-07-06T03:15:47;13.50;99.90
5130;DHT22;2583;50.946;6.954;2022-07-06T03:18:14;13.50;99.90
5130;DHT22;2583;50.946;6.954;2022-07-06T03:20:41;13.50;99.90
5130;DHT22;2583;50.946;6.954;2022-07-06T03:23:07;13.50;99.90
5130;DHT22;2583;50.946;6.954;2022-07-06T03:25:34;13.50;99.90
5130;DHT22;2583;50.946;6.954;2022-07-06T03:28:01;13.50;99.90
5130;DHT22;2583;50.946;6.954;2022-07-06T03:30:28;13.50;99.90
5130;DHT22;2583;50.946;6.954;2022-07-06T03:32:55;13.50;99.90
5130;DHT22;2583;50.946;6.954;2022-07-06T03:35:22;13.50;99.90
5130;DHT22;2583;50.946;6.954;2022-07-06T03:37:49;13.50;99.90
5130;DHT22;2583;50.946;6.954;2022-07-06T03:40:15;13.40;99.90
5130;DHT22;2583;50.946;6.954;2022-07-06T03:42:42;13.50;99.90
5130;DHT22;2583;50.946;6.954;2022-07-06T03:45:10;13.50;99.90
5130;DHT22;2583;50.946;6.954;2022-07-06T03:47:37;13.50;99.90
5130;DHT22;2583;50.946;6.954;2022-07-06T03:50:05;13.50;99.90
5130;DHT22;2583;50.946;6.954;2022-07-06T03:52:32;13.50;99.90
5130;DHT22;2583;50.946;6.954;2022-07-06T03:54:58;13.50;99.90
5130;DHT22;2583;50.946;6.954;2022-07-06T03:57:27;13.50;99.90
5130;DHT22;2583;50.946;6.954;2022-07-06T03:59:54;13.50;99.90
5130;DHT22;2583;50.946;6.954;2022-07-06T04:02:20;13.40;99.90
5130;DHT22;2583;50.946;6.954;2022-07-06T04:04:47;13.40;99.90
5130;DHT22;2583;50.946;6.954;2022-07-06T04:07:14;13.40;99.90
5130;DHT22;2583;50.946;6.954;2022-07-06T04:09:41;13.40;99.90
5130;DHT22;2583;50.946;6.954;2022-07-06T04:12:08;13.40;99.90
5130;DHT22;2583;50.946;6.954;2022-07-06T04:14:35;13.40;99.90
5130;DHT22;2583;50.946;6.954;2022-07-06T04:17:02;13.40;99.90
5130;DHT22;2583;50.946;6.954;2022-07-06T04:19:49;13.40;99.90
5130;DHT22;2583;50.946;6.954;2022-07-06T04:22:15;13.40;99.90
5130;DHT22;2583;50.946;6.954;2022-07-06T04:24:42;13.50;99.90
5130;DHT22;2583;50.946;6.954;2022-07-06T04:27:09;13.50;99.90
5130;DHT22;2583;50.946;6.954;2022-07-06T04:29:36;13.60;99.90
5130;DHT22;2583;50.946;6.954;2022-07-06T04:32:03;13.70;99.90
5130;DHT22;2583;50.946;6.954;2022-07-06T04:34:30;13.70;99.90
5130;DHT22;2583;50.946;6.954;2022-07-06T04:36:57;13.80;99.90
5130;DHT22;2583;50.946;6.954;2022-07-06T04:39:24;13.80;99.90
5130;DHT22;2583;50.946;6.954;2022-07-06T04:41:51;13.90;99.90
5130;DHT22;2583;50.946;6.954;2022-07-06T04:44:17;13.90;99.90
5130;DHT22;2583;50.946;6.954;2022-07-06T04:46:44;14.00;99.90
5130;DHT22;2583;50.946;6.954;2022-07-06T04:49:11;13.90;99.90
5130;DHT22;2583;50.946;6.954;2022-07-06T04:51:38;14.00;99.90
5130;DHT22;2583;50.946;6.954;2022-07-06T04:54:05;14.10;99.90
5130;DHT22;2583;50.946;6.954;2022-07-06T04:56:32;14.10;99.90
5130;DHT22;2583;50.946;6.954;2022-07-06T04:58:59;14.10;99.90
5130;DHT22;2583;50.946;6.954;2022-07-06T05:01:26;14.20;99.90
5130;DHT22;2583;50.946;6.954;2022-07-06T05:03:53;14.30;99.90
5130;DHT22;2583;50.946;6.954;2022-07-06T05:06:20;14.30;99.90
5130;DHT22;2583;50.946;6.954;2022-07-06T05:08:47;14.30;99.90
5130;DHT22;2583;50.946;6.954;2022-07-06T05:11:14;14.40;99.90
5130;DHT22;2583;50.946;6.954;2022-07-06T05:13:41;14.30;99.90
5130;DHT22;2583;50.946;6.954;2022-07-06T05:16:08;14.40;99.90
5130;DHT22;2583;50.946;6.954;2022-07-06T05:18:35;14.40;99.90
5130;DHT22;2583;50.946;6.954;2022-07-06T05:21:02;14.40;99.90
5130;DHT22;2583;50.946;6.954;2022-07-06T05:23:29;14.50;99.90
5130;DHT22;2583;50.946;6.954;2022-07-06T05:25:56;14.50;99.90
5130;DHT22;2583;50.946;6.954;2022-07-06T05:28:24;14.50;99.90
5130;DHT22;2583;50.946;6.954;2022-07-06T05:30:57;14.60;99.90
5130;DHT22;2583;50.946;6.954;2022-07-06T05:33:25;14.70;99.90
5130;DHT22;2583;50.946;6.954;2022-07-06T05:35:53;14.70;99.90
5130;DHT22;2583;50.946;6.954;2022-07-06T05:38:20;14.70;99.90
5130;DHT22;2583;50.946;6.954;2022-07-06T05:40:48;14.80;99.90
5130;DHT22;2583;50.946;6.954;2022-07-06T05:43:15;14.90;99.90
5130;DHT22;2583;50.946;6.954;2022-07-06T05:45:41;14.90;99.90
5130;DHT22;2583;50.946;6.954;2022-07-06T05:48:08;14.90;99.90
5130;DHT22;2583;50.946;6.954;2022-07-06T05:50:54;14.90;99.90
5130;DHT22;2583;50.946;6.954;2022-07-06T05:53:21;14.80;99.90
5130;DHT22;2583;50.946;6.954;2022-07-06T05:55:48;15.00;99.90
5130;DHT22;2583;50.946;6.954;2022-07-06T05:58:15;15.10;99.90
5130;DHT22;2583;50.946;6.954;2022-07-06T06:00:42;15.30;99.90
5130;DHT22;2583;50.946;6.954;2022-07-06T06:03:09;15.20;99.90
5130;DHT22;2583;50.946;6.954;2022-07-06T06:05:36;15.30;99.90
5130;DHT22;2583;50.946;6.954;2022-07-06T06:08:03;15.40;99.90
5130;DHT22;2583;50.946;6.954;2022-07-06T06:10:30;15.40;99.90
5130;DHT22;2583;50.946;6.954;2022-07-06T06:12:57;15.50;99.90
5130;DHT22;2583;50.946;6.954;2022-07-06T06:15:24;15.60;99.90
5130;DHT22;2583;50.946;6.954;2022-07-06T06:17:51;15.50;99.90
5130;DHT22;2583;50.946;6.954;2022-07-06T06:20:18;15.50;99.90
5130;DHT22;2583;50.946;6.954;2022-07-06T06:25:16;15.60;99.90
5130;DHT22;2583;50.946;6.954;2022-07-06T06:27:44;15.60;99.90
5130;DHT22;2583;50.946;6.954;2022-07-06T06:30:11;15.70;99.90
5130;DHT22;2583;50.946;6.954;2022-07-06T06:32:39;15.80;99.90
5130;DHT22;2583;50.946;6.954;2022-07-06T06:35:07;15.80;99.90
5130;DHT22;2583;50.946;6.954;2022-07-06T06:37:34;15.70;99.90
5130;DHT22;2583;50.946;6.954;2022-07-06T06:40:01;15.80;99.90
5130;DHT22;2583;50.946;6.954;2022-07-06T06:42:28;15.90;99.90
5130;DHT22;2583;50.946;6.954;2022-07-06T06:44:55;16.00;99.90
5130;DHT22;2583;50.946;6.954;2022-07-06T06:47:22;16.10;99.90
5130;DHT22;2583;50.946;6.954;2022-07-06T06:49:49;16.30;99.90
5130;DHT22;2583;50.946;6.954;2022-07-06T06:52:16;16.40;99.70
5130;DHT22;2583;50.946;6.954;2022-07-06T06:55:03;16.50;97.00
5130;DHT22;2583;50.946;6.954;2022-07-06T06:57:30;16.40;96.80
5130;DHT22;2583;50.946;6.954;2022-07-06T06:59:56;16.50;95.80
5130;DHT22;2583;50.946;6.954;2022-07-06T07:02:24;16.40;95.10
5130;DHT22;2583;50.946;6.954;2022-07-06T07:04:51;16.40;96.70
5130;DHT22;2583;50.946;6.954;2022-07-06T07:07:18;16.40;96.20
5130;DHT22;2583;50.946;6.954;2022-07-06T07:09:44;16.50;94.80
5130;DHT22;2583;50.946;6.954;2022-07-06T07:12:11;16.50;94.90
5130;DHT22;2583;50.946;6.954;2022-07-06T07:14:38;16.70;94.90
5130;DHT22;2583;50.946;6.954;2022-07-06T07:17:05;16.80;93.70
5130;DHT22;2583;50.946;6.954;2022-07-06T07:19:32;17.10;91.50
5130;DHT22;2583;50.946;6.954;2022-07-06T07:21:59;17.30;84.30
5130;DHT22;2583;50.946;6.954;2022-07-06T07:24:26;17.30;83.60
5130;DHT22;2583;50.946;6.954;2022-07-06T07:26:52;17.70;80.70
5130;DHT22;2583;50.946;6.954;2022-07-06T07:29:19;17.80;69.70
5130;DHT22;2583;50.946;6.954;2022-07-06T07:31:46;17.90;67.00
5130;DHT22;2583;50.946;6.954;2022-07-06T07:34:13;17.90;69.20
5130;DHT22;2583;50.946;6.954;2022-07-06T07:36:40;17.90;66.70
5130;DHT22;2583;50.946;6.954;2022-07-06T07:39:07;17.90;65.60
5130;DHT22;2583;50.946;6.954;2022-07-06T07:41:34;18.00;68.40
5130;DHT22;2583;50.946;6.954;2022-07-06T07:44:01;18.00;60.60
5130;DHT22;2583;50.946;6.954;2022-07-06T07:46:28;18.10;56.90
5130;DHT22;2583;50.946;6.954;2022-07-06T07:48:54;18.20;57.50
5130;DHT22;2583;50.946;6.954;2022-07-06T07:51:21;18.20;55.60
5130;DHT22;2583;50.946;6.954;2022-07-06T07:53:48;18.30;52.80
5130;DHT22;2583;50.946;6.954;2022-07-06T07:56:15;18.20;55.90
5130;DHT22;2583;50.946;6.954;2022-07-06T07:58:41;18.30;56.30
5130;DHT22;2583;50.946;6.954;2022-07-06T08:01:08;18.30;54.80
5130;DHT22;2583;50.946;6.954;2022-07-06T08:03:35;18.30;52.80
5130;DHT22;2583;50.946;6.954;2022-07-06T08:06:02;18.30;48.40
5130;DHT22;2583;50.946;6.954;2022-07-06T08:08:29;18.40;47.50
5130;DHT22;2583;50.946;6.954;2022-07-06T08:10:56;18.30;49.40
5130;DHT22;2583;50.946;6.954;2022-07-06T08:13:43;18.20;47.70
5130;DHT22;2583;50.946;6.954;2022-07-06T08:16:10;18.00;51.50
5130;DHT22;2583;50.946;6.954;2022-07-06T08:18:37;18.00;51.20
5130;DHT22;2583;50.946;6.954;2022-07-06T08:21:04;18.20;49.70
5130;DHT22;2583;50.946;6.954;2022-07-06T08:23:50;18.60;50.40
5130;DHT22;2583;50.946;6.954;2022-07-06T08:26:17;18.70;49.90
5130;DHT22;2583;50.946;6.954;2022-07-06T08:28:44;18.60;48.40
5130;DHT22;2583;50.946;6.954;2022-07-06T08:31:11;18.60;47.70
5130;DHT22;2583;50.946;6.954;2022-07-06T08:33:58;18.80;47.70
5130;DHT22;2583;50.946;6.954;2022-07-06T08:36:26;18.70;47.10
5130;DHT22;2583;50.946;6.954;2022-07-06T08:38:53;18.70;45.30
5130;DHT22;2583;50.946;6.954;2022-07-06T08:41:24;18.70;44.40
5130;DHT22;2583;50.946;6.954;2022-07-06T08:43:52;18.60;45.60
5130;DHT22;2583;50.946;6.954;2022-07-06T08:46:21;18.50;45.40
5130;DHT22;2583;50.946;6.954;2022-07-06T08:48:49;18.60;45.80
5130;DHT22;2583;50.946;6.954;2022-07-06T08:51:17;18.60;44.60
5130;DHT22;2583;50.946;6.954;2022-07-06T08:53:45;18.60;43.80
5130;DHT22;2583;50.946;6.954;2022-07-06T08:56:12;18.80;42.90
5130;DHT22;2583;50.946;6.954;2022-07-06T08:58:40;18.80;44.50
5130;DHT22;2583;50.946;6.954;2022-07-06T09:01:12;18.90;45.50
5130;DHT22;2583;50.946;6.954;2022-07-06T09:03:43;18.80;44.60
5130;DHT22;2583;50.946;6.954;2022-07-06T09:06:16;18.90;44.20
5130;DHT22;2583;50.946;6.954;2022-07-06T09:08:44;19.10;41.10
5130;DHT22;2583;50.946;6.954;2022-07-06T09:11:11;19.30;39.60
5130;DHT22;2583;50.946;6.954;2022-07-06T09:13:38;19.40;37.40
5130;DHT22;2583;50.946;6.954;2022-07-06T09:16:13;19.50;36.20
5130;DHT22;2583;50.946;6.954;2022-07-06T09:19:01;19.50;35.90
5130;DHT22;2583;50.946;6.954;2022-07-06T09:21:30;19.60;37.60
5130;DHT22;2583;50.946;6.954;2022-07-06T09:24:00;19.40;38.90
5130;DHT22;2583;50.946;6.954;2022-07-06T09:26:29;19.40;38.40
5130;DHT22;2583;50.946;6.954;2022-07-06T09:28:57;19.30;38.90
5130;DHT22;2583;50.946;6.954;2022-07-06T09:31:24;19.20;40.00
5130;DHT22;2583;50.946;6.954;2022-07-06T09:33:58;19.10;38.70
5130;DHT22;2583;50.946;6.954;2022-07-06T09:36:46;19.10;39.30
5130;DHT22;2583;50.946;6.954;2022-07-06T09:39:27;19.10;37.30
5130;DHT22;2583;50.946;6.954;2022-07-06T09:41:59;18.90;37.40
5130;DHT22;2583;50.946;6.954;2022-07-06T09:44:40;19.20;37.40
5130;DHT22;2583;50.946;6.954;2022-07-06T09:47:09;19.30;35.80
5130;DHT22;2583;50.946;6.954;2022-07-06T09:49:38;19.40;36.60
5130;DHT22;2583;50.946;6.954;2022-07-06T09:52:07;19.50;36.10
5130;DHT22;2583;50.946;6.954;2022-07-06T09:54:35;19.60;35.10
5130;DHT22;2583;50.946;6.954;2022-07-06T09:57:02;19.80;35.20
5130;DHT22;2583;50.946;6.954;2022-07-06T09:59:36;19.90;34.10
5130;DHT22;2583;50.946;6.954;2022-07-06T10:02:05;20.00;34.00
5130;DHT22;2583;50.946;6.954;2022-07-06T10:04:33;20.10;32.70
5130;DHT22;2583;50.946;6.954;2022-07-06T10:07:00;20.20;30.90
5130;DHT22;2583;50.946;6.954;2022-07-06T10:09:28;19.90;33.10
5130;DHT22;2583;50.946;6.954;2022-07-06T10:11:58;19.80;34.90
5130;DHT22;2583;50.946;6.954;2022-07-06T10:14:27;19.80;35.60
5130;DHT22;2583;50.946;6.954;2022-07-06T10:17:02;19.90;34.90
5130;DHT22;2583;50.946;6.954;2022-07-06T10:19:31;20.20;34.40
5130;DHT22;2583;50.946;6.954;2022-07-06T10:22:00;20.60;33.90
5130;DHT22;2583;50.946;6.954;2022-07-06T10:24:28;20.60;32.90
5130;DHT22;2583;50.946;6.954;2022-07-06T10:26:59;20.70;31.50
5130;DHT22;2583;50.946;6.954;2022-07-06T10:29:26;20.70;30.20
5130;DHT22;2583;50.946;6.954;2022-07-06T10:31:53;20.80;29.70
5130;DHT22;2583;50.946;6.954;2022-07-06T10:34:21;20.90;29.30
5130;DHT22;2583;50.946;6.954;2022-07-06T10:36:50;20.70;29.60
5130;DHT22;2583;50.946;6.954;2022-07-06T10:39:35;20.80;28.60
5130;DHT22;2583;50.946;6.954;2022-07-06T10:45:08;21.00;28.80
5130;DHT22;2583;50.946;6.954;2022-07-06T10:47:36;21.10;28.30
5130;DHT22;2583;50.946;6.954;2022-07-06T10:50:04;21.30;27.90
5130;DHT22;2583;50.946;6.954;2022-07-06T10:52:58;21.10;28.40
5130;DHT22;2583;50.946;6.954;2022-07-06T10:55:32;20.90;28.70
5130;DHT22;2583;50.946;6.954;2022-07-06T10:58:00;20.90;29.20
5130;DHT22;2583;50.946;6.954;2022-07-06T11:00:49;21.00;27.60
5130;DHT22;2583;50.946;6.954;2022-07-06T11:06:01;21.30;27.00
5130;DHT22;2583;50.946;6.954;2022-07-06T11:08:56;21.30;26.60
5130;DHT22;2583;50.946;6.954;2022-07-06T11:14:05;21.60;25.60
5130;DHT22;2583;50.946;6.954;2022-07-06T11:17:19;21.50;24.60
5130;DHT22;2583;50.946;6.954;2022-07-06T11:19:22;21.80;25.00
5130;DHT22;2583;50.946;6.954;2022-07-06T11:21:54;21.80;23.80
5130;DHT22;2583;50.946;6.954;2022-07-06T11:24:29;21.90;23.50
5130;DHT22;2583;50.946;6.954;2022-07-06T11:26:57;21.80;24.30
5130;DHT22;2583;50.946;6.954;2022-07-06T11:29:25;21.70;23.30
5130;DHT22;2583;50.946;6.954;2022-07-06T11:31:55;21.80;23.20
5130;DHT22;2583;50.946;6.954;2022-07-06T11:34:28;21.80;22.80
5130;DHT22;2583;50.946;6.954;2022-07-06T11:37:00;21.80;22.70
5130;DHT22;2583;50.946;6.954;2022-07-06T11:39:28;21.90;22.10
5130;DHT22;2583;50.946;6.954;2022-07-06T11:41:56;22.00;22.10
5130;DHT22;2583;50.946;6.954;2022-07-06T11:44:23;22.10;22.20
5130;DHT22;2583;50.946;6.954;2022-07-06T11:46:50;22.10;22.30
5130;DHT22;2583;50.946;6.954;2022-07-06T11:49:18;22.20;22.40
5130;DHT22;2583;50.946;6.954;2022-07-06T11:51:46;22.10;22.50
5130;DHT22;2583;50.946;6.954;2022-07-06T11:54:21;21.90;21.60
5130;DHT22;2583;50.946;6.954;2022-07-06T11:59:16;21.30;21.60
5130;DHT22;2583;50.946;6.954;2022-07-06T12:01:43;21.20;24.00
5130;DHT22;2583;50.946;6.954;2022-07-06T12:04:11;21.30;24.50
5130;DHT22;2583;50.946;6.954;2022-07-06T12:06:38;21.50;24.40
5130;DHT22;2583;50.946;6.954;2022-07-06T12:09:10;21.70;24.20
5130;DHT22;2583;50.946;6.954;2022-07-06T12:11:37;22.20;23.80
5130;DHT22;2583;50.946;6.954;2022-07-06T12:14:15;22.70;23.40
5130;DHT22;2583;50.946;6.954;2022-07-06T12:16:42;23.20;22.20
5130;DHT22;2583;50.946;6.954;2022-07-06T12:19:09;23.20;21.90
5130;DHT22;2583;50.946;6.954;2022-07-06T12:21:51;23.30;22.40
5130;DHT22;2583;50.946;6.954;2022-07-06T12:24:24;23.20;22.20
5130;DHT22;2583;50.946;6.954;2022-07-06T12:26:52;22.80;22.60
5130;DHT22;2583;50.946;6.954;2022-07-06T12:29:20;22.70;22.40
5130;DHT22;2583;50.946;6.954;2022-07-06T12:31:55;22.40;22.00
5130;DHT22;2583;50.946;6.954;2022-07-06T12:34:24;22.20;22.90
5130;DHT22;2583;50.946;6.954;2022-07-06T12:36:53;22.10;22.30
5130;DHT22;2583;50.946;6.954;2022-07-06T12:39:22;22.20;21.90
5130;DHT22;2583;50.946;6.954;2022-07-06T12:41:51;22.10;22.10
5130;DHT22;2583;50.946;6.954;2022-07-06T12:44:20;22.50;22.20
5130;DHT22;2583;50.946;6.954;2022-07-06T12:47:10;22.70;21.60
5130;DHT22;2583;50.946;6.954;2022-07-06T12:49:37;22.90;21.80
5130;DHT22;2583;50.946;6.954;2022-07-06T12:52:10;23.00;21.00
5130;DHT22;2583;50.946;6.954;2022-07-06T12:54:49;23.10;21.20
5130;DHT22;2583;50.946;6.954;2022-07-06T12:57:17;23.00;21.50
5130;DHT22;2583;50.946;6.954;2022-07-06T12:59:47;23.00;21.00
5130;DHT22;2583;50.946;6.954;2022-07-06T13:02:21;23.00;21.40
5130;DHT22;2583;50.946;6.954;2022-07-06T13:05:09;23.00;21.00
5130;DHT22;2583;50.946;6.954;2022-07-06T13:07:39;23.30;21.40
5130;DHT22;2583;50.946;6.954;2022-07-06T13:10:08;23.30;20.50
5130;DHT22;2583;50.946;6.954;2022-07-06T13:12:35;23.30;19.70
5130;DHT22;2583;50.946;6.954;2022-07-06T13:15:03;23.50;18.80
5130;DHT22;2583;50.946;6.954;2022-07-06T13:17:31;23.80;18.80
5130;DHT22;2583;50.946;6.954;2022-07-06T13:19:57;23.60;19.00
5130;DHT22;2583;50.946;6.954;2022-07-06T13:22:24;23.60;19.80
5130;DHT22;2583;50.946;6.954;2022-07-06T13:24:51;23.50;19.50
5130;DHT22;2583;50.946;6.954;2022-07-06T13:27:18;23.50;19.40
5130;DHT22;2583;50.946;6.954;2022-07-06T13:29:45;23.50;19.10
5130;DHT22;2583;50.946;6.954;2022-07-06T13:32:12;23.70;19.00
5130;DHT22;2583;50.946;6.954;2022-07-06T13:34:39;24.10;18.80
5130;DHT22;2583;50.946;6.954;2022-07-06T13:37:06;24.50;18.50
5130;DHT22;2583;50.946;6.954;2022-07-06T13:39:33;24.70;18.40
5130;DHT22;2583;50.946;6.954;2022-07-06T13:42:00;24.30;18.30
5130;DHT22;2583;50.946;6.954;2022-07-06T13:44:27;24.40;18.60
5130;DHT22;2583;50.946;6.954;2022-07-06T13:46:54;24.40;18.80
5130;DHT22;2583;50.946;6.954;2022-07-06T13:49:20;24.30;19.40
5130;DHT22;2583;50.946;6.954;2022-07-06T13:51:51;24.00;19.10
5130;DHT22;2583;50.946;6.954;2022-07-06T13:54:18;24.00;18.90
5130;DHT22;2583;50.946;6.954;2022-07-06T13:56:44;25.00;18.00
5130;DHT22;2583;50.946;6.954;2022-07-06T13:59:11;25.30;17.60
5130;DHT22;2583;50.946;6.954;2022-07-06T14:01:38;25.50;17.90
5130;DHT22;2583;50.946;6.954;2022-07-06T14:04:05;25.90;17.30
5130;DHT22;2583;50.946;6.954;2022-07-06T14:06:32;26.30;1.00
5130;DHT22;2583;50.946;6.954;2022-07-06T14:09:00;27.10;1.00
5130;DHT22;2583;50.946;6.954;2022-07-06T14:11:27;27.80;1.00
5130;DHT22;2583;50.946;6.954;2022-07-06T14:13:54;27.00;1.00
5130;DHT22;2583;50.946;6.954;2022-07-06T14:16:21;26.50;1.00
5130;DHT22;2583;50.946;6.954;2022-07-06T14:18:49;27.00;1.00
5130;DHT22;2583;50.946;6.954;2022-07-06T14:21:16;26.60;1.00
5130;DHT22;2583;50.946;6.954;2022-07-06T14:23:43;26.40;1.00
5130;DHT22;2583;50.946;6.954;2022-07-06T14:26:09;26.30;1.00
5130;DHT22;2583;50.946;6.954;2022-07-06T14:28:36;26.60;1.00
5130;DHT22;2583;50.946;6.954;2022-07-06T14:31:03;26.30;1.00
5130;DHT22;2583;50.946;6.954;2022-07-06T14:33:30;26.00;1.00
5130;DHT22;2583;50.946;6.954;2022-07-06T14:35:57;25.30;1.00
5130;DHT22;2583;50.946;6.954;2022-07-06T14:38:24;24.90;1.00
5130;DHT22;2583;50.946;6.954;2022-07-06T14:40:51;24.40;1.00
5130;DHT22;2583;50.946;6.954;2022-07-06T14:43:17;24.10;1.00
5130;DHT22;2583;50.946;6.954;2022-07-06T14:45:46;23.90;1.00
5130;DHT22;2583;50.946;6.954;2022-07-06T14:48:14;24.00;1.00
5130;DHT22;2583;50.946;6.954;2022-07-06T14:50:40;24.00;1.00
5130;DHT22;2583;50.946;6.954;2022-07-06T14:53:07;24.00;1.00
5130;DHT22;2583;50.946;6.954;2022-07-06T14:55:34;23.80;1.00
5130;DHT22;2583;50.946;6.954;2022-07-06T14:58:01;23.80;1.00
5130;DHT22;2583;50.946;6.954;2022-07-06T15:00:28;23.70;1.00
5130;DHT22;2583;50.946;6.954;2022-07-06T15:02:55;23.70;1.00
5130;DHT22;2583;50.946;6.954;2022-07-06T15:05:23;23.70;1.00
5130;DHT22;2583;50.946;6.954;2022-07-06T15:07:50;23.60;1.00
5130;DHT22;2583;50.946;6.954;2022-07-06T15:10:21;23.20;1.00
5130;DHT22;2583;50.946;6.954;2022-07-06T15:12:48;23.10;1.00
5130;DHT22;2583;50.946;6.954;2022-07-06T15:15:15;23.20;1.00
5130;DHT22;2583;50.946;6.954;2022-07-06T15:18:02;23.20;1.00
5130;DHT22;2583;50.946;6.954;2022-07-06T15:20:30;23.30;1.00
5130;DHT22;2583;50.946;6.954;2022-07-06T15:22:56;23.30;1.00
5130;DHT22;2583;50.946;6.954;2022-07-06T15:25:23;23.20;1.00
5130;DHT22;2583;50.946;6.954;2022-07-06T15:27:51;23.30;1.00
5130;DHT22;2583;50.946;6.954;2022-07-06T15:30:19;23.20;1.00
5130;DHT22;2583;50.946;6.954;2022-07-06T15:32:57;23.30;1.00
5130;DHT22;2583;50.946;6.954;2022-07-06T15:35:24;23.20;1.00
5130;DHT22;2583;50.946;6.954;2022-07-06T15:37:51;23.20;1.00
5130;DHT22;2583;50.946;6.954;2022-07-06T15:40:21;23.40;1.00
5130;DHT22;2583;50.946;6.954;2022-07-06T15:42:51;23.40;1.00
5130;DHT22;2583;50.946;6.954;2022-07-06T15:45:20;23.40;1.00
5130;DHT22;2583;50.946;6.954;2022-07-06T15:47:49;23.40;1.00
5130;DHT22;2583;50.946;6.954;2022-07-06T15:50:16;23.50;1.00
5130;DHT22;2583;50.946;6.954;2022-07-06T15:52:45;23.50;1.00
5130;DHT22;2583;50.946;6.954;2022-07-06T15:55:12;23.50;1.00
5130;DHT22;2583;50.946;6.954;2022-07-06T15:57:39;23.60;1.00
5130;DHT22;2583;50.946;6.954;2022-07-06T16:00:06;23.50;1.00
5130;DHT22;2583;50.946;6.954;2022-07-06T16:02:33;23.40;1.00
5130;DHT22;2583;50.946;6.954;2022-07-06T16:05:00;23.20;1.00
5130;DHT22;2583;50.946;6.954;2022-07-06T16:07:26;23.10;1.00
5130;DHT22;2583;50.946;6.954;2022-07-06T16:10:14;23.20;1.00
5130;DHT22;2583;50.946;6.954;2022-07-06T16:12:40;23.40;1.00
5130;DHT22;2583;50.946;6.954;2022-07-06T16:15:08;23.20;1.00
5130;DHT22;2583;50.946;6.954;2022-07-06T16:17:36;23.20;1.00
5130;DHT22;2583;50.946;6.954;2022-07-06T16:20:03;23.20;1.00
5130;DHT22;2583;50.946;6.954;2022-07-06T16:22:31;22.90;1.00
5130;DHT22;2583;50.946;6.954;2022-07-06T16:24:58;23.00;1.00
5130;DHT22;2583;50.946;6.954;2022-07-06T16:27:31;22.90;1.00